Time;durP1;ratioP1;P1;durP2;ratioP2;P2;SDS_P1;SDS_P2;PMS_P1;PMS_P2;Temp;Humidity;BMP_temperature;BMP_pressure;BME280_temperature;BME280_humidity;BME280_pressure;Samples;Min_cycle;Max_cycle;Signal;HPM_P1;HPM_P2
2021/09/25 00:02:21;;;;;;;4.05;1.38;;;22.10;66.10;;;;;;4971656;28;86795;-57
2021/09/25 00:04:47;;;;;;;1.48;0.73;;;22.10;66.10;;;;;;4970925;28;86302;-56
2021/09/25 00:07:13;;;;;;;1.17;0.93;;;22.10;66.10;;;;;;4971511;28;85858;-61
2021/09/25 00:09:40;;;;;;;1.67;0.90;;;22.10;66.20;;;;;;4971271;28;86633;-59
2021/09/25 00:12:10;;;;;;;3.80;1.08;;;22.10;66.30;;;;;;4957148;28;87506;-60
2021/09/25 00:14:37;;;;;;;3.55;0.90;;;22.00;66.30;;;;;;4963065;28;86590;-56
2021/09/25 00:17:04;;;;;;;2.35;1.08;;;22.00;66.20;;;;;;4970006;28;85873;-58
2021/09/25 00:19:30;;;;;;;1.10;1.00;;;22.00;66.30;;;;;;4971150;28;86916;-58
2021/09/25 00:21:58;;;;;;;1.25;0.88;;;22.00;66.30;;;;;;4971347;28;86981;-54
2021/09/25 00:24:24;;;;;;;1.42;0.90;;;22.00;66.30;;;;;;4971366;28;86689;-56
2021/09/25 00:26:50;;;;;;;4.10;0.82;;;22.00;66.40;;;;;;4971370;28;86630;-60
2021/09/25 00:29:15;;;;;;;1.25;0.90;;;22.00;66.40;;;;;;4970957;28;87006;-55
2021/09/25 00:31:41;;;;;;;3.35;1.00;;;22.00;66.40;;;;;;4971468;28;86668;-55
2021/09/25 00:34:07;;;;;;;1.40;0.80;;;22.00;66.40;;;;;;4971532;28;86072;-56
2021/09/25 00:36:33;;;;;;;1.80;1.05;;;22.00;66.40;;;;;;4957806;28;86361;-55
2021/09/25 00:38:58;;;;;;;0.98;0.85;;;22.00;66.40;;;;;;4959113;28;90267;-66
2021/09/25 00:41:24;;;;;;;2.13;0.93;;;22.00;67.00;;;;;;4968364;28;89445;-57
2021/09/25 00:43:51;;;;;;;2.60;1.17;;;22.00;66.40;;;;;;4970420;28;86813;-58
2021/09/25 00:46:19;;;;;;;0.98;0.68;;;22.00;66.40;;;;;;4955879;28;87352;-54
2021/09/25 00:48:44;;;;;;;1.50;0.90;;;22.00;66.50;;;;;;4970354;28;87037;-54
2021/09/25 00:51:13;;;;;;;1.90;1.00;;;22.00;66.40;;;;;;4961957;28;87813;-56
2021/09/25 00:53:39;;;;;;;1.00;0.88;;;21.90;66.40;;;;;;4959738;28;86096;-60
2021/09/25 00:56:25;;;;;;;1.92;0.85;;;21.90;66.40;;;;;;4962506;28;85838;-60
2021/09/25 00:58:51;;;;;;;0.90;0.90;;;21.90;66.40;;;;;;4985758;28;87547;-56
2021/09/25 01:01:17;;;;;;;1.35;1.00;;;21.90;66.50;;;;;;4969469;28;87321;-62
2021/09/25 01:03:42;;;;;;;1.17;0.80;;;21.90;66.50;;;;;;4987968;28;86712;-56
2021/09/25 01:06:08;;;;;;;1.75;1.13;;;21.90;66.40;;;;;;4987956;28;87070;-55
2021/09/25 01:08:34;;;;;;;0.93;0.85;;;21.90;66.40;;;;;;4970442;28;88740;-62
2021/09/25 01:11:00;;;;;;;1.27;0.90;;;21.90;66.50;;;;;;4988104;28;86654;-62
2021/09/25 01:13:25;;;;;;;1.27;0.82;;;21.90;66.50;;;;;;4970143;28;85826;-55
2021/09/25 01:15:52;;;;;;;2.90;1.05;;;21.90;66.40;;;;;;4988169;28;86844;-56
2021/09/25 01:18:18;;;;;;;1.15;0.77;;;21.90;66.40;;;;;;4969202;28;89207;-54
2021/09/25 01:20:44;;;;;;;1.63;0.80;;;21.90;66.40;;;;;;4986196;28;87117;-55
2021/09/25 01:23:10;;;;;;;3.60;1.08;;;21.90;66.40;;;;;;4986763;28;86360;-61
2021/09/25 01:25:36;;;;;;;0.95;0.70;;;21.90;66.40;;;;;;4985897;28;86322;-57
2021/09/25 01:28:03;;;;;;;1.80;1.00;;;21.90;66.50;;;;;;4971960;28;88080;-56
2021/09/25 01:30:29;;;;;;;2.47;1.10;;;21.90;66.40;;;;;;4971500;28;87468;-57
2021/09/25 01:32:55;;;;;;;2.50;0.75;;;21.90;66.40;;;;;;4965063;28;86920;-66
2021/09/25 01:42:24;;;;;;;0.90;0.80;;;21.80;66.40;;;;;;4945700;28;86458;-74
2021/09/25 01:52:08;;;;;;;1.00;0.88;;;21.80;66.40;;;;;;4946212;28;85991;-74
2021/09/25 02:25:11;;;;;;;1.77;0.90;;;21.70;66.40;;;;;;4946093;28;86416;-74
2021/09/25 02:34:40;;;;;;;2.28;1.15;;;21.70;66.40;;;;;;4960300;28;88274;-73
2021/09/25 02:37:06;;;;;;;1.63;0.73;;;21.70;66.40;;;;;;4965437;28;87803;-73
2021/09/25 02:39:33;;;;;;;1.50;0.90;;;21.70;66.40;;;;;;4964331;28;87169;-73
2021/09/25 02:41:59;;;;;;;1.00;0.77;;;21.70;66.40;;;;;;4965266;28;87131;-71
2021/09/25 02:44:26;;;;;;;1.17;1.00;;;21.70;66.50;;;;;;4965106;28;87491;-73
2021/09/25 02:46:53;;;;;;;2.50;1.25;;;21.70;67.00;;;;;;4964793;28;87635;-73
2021/09/25 02:49:20;;;;;;;3.30;0.90;;;21.70;66.50;;;;;;4964698;28;88195;-73
2021/09/25 02:51:47;;;;;;;1.60;0.85;;;21.70;66.60;;;;;;4965020;28;86350;-73
2021/09/25 02:54:12;;;;;;;0.95;0.73;;;21.70;66.60;;;;;;4964227;28;87880;-73
2021/09/25 02:56:38;;;;;;;1.10;0.82;;;21.70;66.60;;;;;;4962280;28;87696;-72
2021/09/25 02:59:05;;;;;;;1.13;0.90;;;21.70;66.60;;;;;;4961856;28;88023;-73
2021/09/25 03:01:32;;;;;;;2.58;0.95;;;21.70;66.70;;;;;;4962284;28;87022;-73
2021/09/25 03:03:57;;;;;;;1.90;1.00;;;21.70;66.60;;;;;;4962463;28;87962;-73
2021/09/25 03:06:27;;;;;;;1.33;0.75;;;21.70;66.70;;;;;;4943401;28;87720;-73
2021/09/25 03:08:53;;;;;;;0.98;0.80;;;21.60;66.60;;;;;;4958411;28;88031;-74
2021/09/25 03:11:19;;;;;;;1.67;1.10;;;21.70;66.70;;;;;;4958345;28;87366;-74
2021/09/25 03:13:45;;;;;;;1.27;0.95;;;21.60;66.60;;;;;;4956734;28;88677;-73
2021/09/25 03:16:14;;;;;;;3.45;0.85;;;21.70;66.70;;;;;;4957514;28;87561;-74
2021/09/25 03:18:40;;;;;;;0.80;0.63;;;21.60;66.70;;;;;;4957180;28;87617;-73
2021/09/25 03:21:05;;;;;;;1.00;0.77;;;21.60;66.70;;;;;;4941691;28;88222;-73
2021/09/25 03:23:31;;;;;;;0.90;0.80;;;21.60;66.70;;;;;;4957055;28;88590;-73
2021/09/25 03:25:57;;;;;;;1.50;0.65;;;21.60;66.70;;;;;;4938215;28;88226;-73
2021/09/25 03:28:22;;;;;;;1.13;0.98;;;21.60;66.70;;;;;;4963463;28;87856;-73
2021/09/25 03:30:48;;;;;;;1.08;0.90;;;21.60;66.70;;;;;;4957076;28;87513;-73
2021/09/25 03:33:14;;;;;;;1.40;0.90;;;21.60;66.70;;;;;;4957758;28;87542;-74
2021/09/25 03:35:46;;;;;;;1.45;0.90;;;21.60;66.70;;;;;;4957074;28;87771;-73
2021/09/25 03:38:13;;;;;;;1.42;0.95;;;21.60;66.70;;;;;;4957815;28;87848;-73
2021/09/25 03:40:38;;;;;;;1.50;0.70;;;21.60;66.70;;;;;;4957612;28;87473;-73
2021/09/25 03:43:07;;;;;;;1.52;0.98;;;21.60;66.70;;;;;;4956170;28;87520;-73
2021/09/25 03:45:32;;;;;;;0.93;0.80;;;21.60;66.80;;;;;;4955736;28;88467;-73
2021/09/25 03:47:59;;;;;;;1.70;0.82;;;21.60;66.70;;;;;;4956857;28;88671;-73
2021/09/25 03:50:26;;;;;;;0.93;0.70;;;21.60;66.70;;;;;;4956730;28;87596;-73
2021/09/25 03:52:52;;;;;;;2.15;0.90;;;21.60;66.70;;;;;;4958821;28;87687;-73
2021/09/25 03:55:17;;;;;;;0.80;0.70;;;21.60;66.70;;;;;;4958453;28;88614;-73
2021/09/25 03:57:43;;;;;;;1.00;0.80;;;21.60;66.70;;;;;;4957737;28;88037;-74
2021/09/25 04:00:09;;;;;;;0.90;0.75;;;21.60;66.70;;;;;;4957099;28;87691;-72
2021/09/25 04:02:35;;;;;;;1.40;0.90;;;21.60;66.70;;;;;;4958129;28;88735;-73
2021/09/25 04:05:00;;;;;;;1.35;0.70;;;21.60;66.70;;;;;;4958908;28;86712;-72
2021/09/25 04:07:26;;;;;;;1.23;0.95;;;21.60;66.70;;;;;;4958342;28;87704;-73
2021/09/25 04:09:52;;;;;;;1.58;0.80;;;21.60;66.70;;;;;;4958962;28;88147;-73
2021/09/25 04:12:17;;;;;;;1.48;0.90;;;21.60;66.70;;;;;;4960875;28;88679;-73
2021/09/25 04:14:44;;;;;;;1.33;0.90;;;21.60;66.70;;;;;;4958675;28;88275;-73
2021/09/25 04:17:10;;;;;;;3.60;1.00;;;21.60;66.70;;;;;;4963087;28;87185;-73
2021/09/25 04:19:35;;;;;;;1.48;0.90;;;21.60;66.70;;;;;;4961632;28;87266;-73
2021/09/25 04:22:01;;;;;;;1.40;0.90;;;21.60;66.70;;;;;;4943427;28;89520;-73
2021/09/25 04:24:27;;;;;;;2.03;0.90;;;21.50;66.60;;;;;;4962081;28;87601;-73
2021/09/25 04:26:52;;;;;;;1.23;0.85;;;21.60;66.60;;;;;;4962559;28;87341;-73
2021/09/25 04:29:18;;;;;;;1.38;0.88;;;21.60;66.60;;;;;;4963019;28;87766;-73
2021/09/25 04:31:46;;;;;;;1.05;0.70;;;21.50;66.60;;;;;;4961884;28;88037;-73
2021/09/25 04:34:15;;;;;;;1.08;0.77;;;21.60;66.60;;;;;;4962380;28;87397;-73
2021/09/25 04:36:41;;;;;;;1.10;1.00;;;21.50;66.50;;;;;;4963810;28;88007;-73
2021/09/25 04:39:07;;;;;;;0.95;0.70;;;21.60;66.60;;;;;;4963825;28;86935;-72
2021/09/25 04:41:34;;;;;;;1.33;0.70;;;21.50;67.10;;;;;;4962474;28;87646;-76
2021/09/25 04:44:00;;;;;;;1.38;0.95;;;21.50;66.50;;;;;;4962232;28;87542;-73
2021/09/25 04:46:26;;;;;;;2.42;0.75;;;21.60;66.60;;;;;;4973904;28;86957;-77
2021/09/25 04:48:51;;;;;;;0.93;0.90;;;21.50;66.50;;;;;;4977752;28;87268;-74
2021/09/25 04:51:18;;;;;;;1.40;1.17;;;21.50;66.50;;;;;;4978389;28;89259;-73
2021/09/25 04:53:44;;;;;;;1.20;1.00;;;21.50;66.50;;;;;;4978671;28;85974;-75
2021/09/25 04:56:11;;;;;;;1.02;0.80;;;21.50;66.50;;;;;;4977830;28;87529;-73
2021/09/25 04:58:37;;;;;;;3.47;0.95;;;21.60;66.60;;;;;;4978097;28;87736;-73
2021/09/25 05:01:04;;;;;;;1.13;0.82;;;21.50;66.50;;;;;;4976910;28;88622;-74
2021/09/25 05:03:30;;;;;;;0.95;0.82;;;21.60;66.60;;;;;;4978816;28;87103;-77
2021/09/25 05:05:55;;;;;;;1.05;0.80;;;21.50;66.50;;;;;;4977028;28;86988;-78
2021/09/25 05:08:22;;;;;;;1.88;0.63;;;21.50;66.50;;;;;;4979314;28;88521;-74
2021/09/25 05:10:48;;;;;;;1.02;0.80;;;21.50;66.50;;;;;;4978337;28;87406;-75
2021/09/25 05:13:13;;;;;;;1.00;0.90;;;21.50;66.50;;;;;;4968548;28;88719;-77
2021/09/25 05:15:39;;;;;;;0.80;0.80;;;21.50;66.50;;;;;;4960192;28;87043;-76
2021/09/25 05:18:05;;;;;;;1.17;0.82;;;21.50;66.50;;;;;;4976940;28;87601;-75
2021/09/25 05:20:30;;;;;;;1.05;0.70;;;21.50;66.50;;;;;;4977273;28;87181;-74
2021/09/25 05:22:56;;;;;;;1.10;0.80;;;21.50;66.50;;;;;;4975400;28;87259;-73
2021/09/25 05:25:21;;;;;;;1.15;0.80;;;21.50;66.50;;;;;;4975489;28;87815;-77
2021/09/25 05:27:48;;;;;;;1.58;0.70;;;21.50;66.50;;;;;;4972092;28;86979;-73
2021/09/25 05:30:14;;;;;;;2.25;0.70;;;21.50;66.50;;;;;;4958263;28;89365;-72
2021/09/25 05:32:40;;;;;;;1.50;0.80;;;21.50;66.50;;;;;;4958040;28;89130;-79
2021/09/25 05:35:07;;;;;;;1.05;0.70;;;21.50;66.50;;;;;;4971555;28;87545;-74
2021/09/25 05:37:32;;;;;;;0.93;0.80;;;21.50;66.50;;;;;;4973688;28;88096;-79
2021/09/25 05:39:58;;;;;;;2.25;0.95;;;21.50;66.50;;;;;;4975174;28;87818;-73
2021/09/25 05:42:28;;;;;;;2.33;0.73;;;21.50;66.50;;;;;;4973140;28;86753;-73
2021/09/25 05:44:54;;;;;;;1.77;0.80;;;21.50;66.50;;;;;;4974430;28;87682;-73
2021/09/25 05:47:22;;;;;;;0.70;0.70;;;21.50;66.50;;;;;;4972594;28;87087;-77
2021/09/25 05:49:47;;;;;;;1.83;0.70;;;21.50;66.40;;;;;;4973457;28;89393;-77
2021/09/25 05:52:15;;;;;;;1.10;1.00;;;21.50;66.40;;;;;;4973314;28;87023;-72
2021/09/25 05:54:41;;;;;;;0.98;0.85;;;21.50;67.00;;;;;;4974567;28;86970;-75
2021/09/25 05:57:07;;;;;;;1.08;0.80;;;21.50;66.50;;;;;;4953171;28;87103;-73
2021/09/25 05:59:33;;;;;;;1.58;0.80;;;21.50;66.60;;;;;;4970105;28;87721;-74
2021/09/25 06:01:59;;;;;;;5.50;0.98;;;21.50;66.80;;;;;;4973217;28;87169;-77
2021/09/25 06:04:25;;;;;;;4.72;0.95;;;21.50;66.90;;;;;;4955113;28;87044;-73
2021/09/25 06:06:51;;;;;;;2.90;0.70;;;21.50;66.90;;;;;;4973082;28;86654;-73
2021/09/25 06:09:16;;;;;;;1.45;0.77;;;21.50;66.90;;;;;;4968317;28;88204;-74
2021/09/25 06:11:42;;;;;;;2.55;1.20;;;21.50;66.80;;;;;;4970445;28;87318;-73
2021/09/25 06:14:08;;;;;;;2.80;1.40;;;21.50;66.80;;;;;;4968558;28;88010;-74
2021/09/25 06:16:34;;;;;;;4.35;1.13;;;21.50;66.80;;;;;;4973131;28;87750;-74
2021/09/25 06:18:59;;;;;;;8.68;2.05;;;21.50;66.70;;;;;;4975142;28;87728;-77
2021/09/25 06:21:25;;;;;;;2.42;1.67;;;21.50;66.70;;;;;;4958944;28;86638;-76
2021/09/25 06:23:51;;;;;;;3.38;2.00;;;21.50;66.70;;;;;;4959478;28;87030;-73
2021/09/25 06:26:16;;;;;;;3.58;2.05;;;21.50;66.50;;;;;;4956408;28;87077;-72
2021/09/25 06:28:46;;;;;;;3.67;2.53;;;21.50;66.50;;;;;;4969773;28;89231;-73
2021/09/25 06:31:12;;;;;;;5.38;3.08;;;21.50;66.40;;;;;;4972510;28;86857;-77
2021/09/25 06:33:38;;;;;;;6.93;3.28;;;21.50;66.50;;;;;;4974573;28;87643;-73
2021/09/25 06:36:04;;;;;;;6.30;3.13;;;21.50;66.30;;;;;;4972622;28;88353;-74
2021/09/25 06:38:29;;;;;;;4.93;2.97;;;21.50;66.30;;;;;;4971010;28;88999;-74
2021/09/25 06:40:55;;;;;;;4.55;3.05;;;21.50;66.30;;;;;;4971053;28;87717;-73
2021/09/25 06:43:21;;;;;;;4.40;2.90;;;21.50;66.30;;;;;;4973885;28;87228;-74
2021/09/25 06:45:46;;;;;;;4.53;2.85;;;21.40;66.20;;;;;;4972475;28;87949;-73
2021/09/25 06:48:12;;;;;;;5.18;2.90;;;21.40;66.20;;;;;;4973423;28;89056;-75
2021/09/25 06:50:38;;;;;;;91.72;17.98;;;21.50;66.20;;;;;;4971692;28;88119;-75
2021/09/25 06:53:03;;;;;;;76.72;15.38;;;21.50;66.70;;;;;;4966342;28;87886;-73
2021/09/25 06:55:29;;;;;;;43.47;10.55;;;21.50;67.00;;;;;;4965703;28;87171;-77
2021/09/25 06:57:56;;;;;;;44.42;11.38;;;21.50;67.30;;;;;;4966765;28;87883;-74
2021/09/25 07:00:21;;;;;;;42.35;10.60;;;21.50;67.40;;;;;;4941797;28;89632;-73
2021/09/25 07:02:47;;;;;;;36.65;9.38;;;21.50;67.80;;;;;;4953277;28;87950;-76
2021/09/25 07:05:13;;;;;;;44.75;11.35;;;21.50;67.80;;;;;;4971370;28;87050;-78
2021/09/25 07:07:39;;;;;;;38.17;9.38;;;21.50;67.50;;;;;;4965437;28;88317;-76
2021/09/25 07:10:05;;;;;;;53.65;12.82;;;21.50;67.30;;;;;;4968673;28;88086;-75
2021/09/25 07:12:32;;;;;;;66.05;15.02;;;21.50;67.50;;;;;;4966839;28;88177;-73
2021/09/25 07:14:57;;;;;;;62.97;15.45;;;21.50;68.10;;;;;;4968814;28;86983;-73
2021/09/25 07:17:24;;;;;;;54.97;14.18;;;21.50;68.20;;;;;;4970466;28;88348;-78
2021/09/25 07:19:51;;;;;;;58.55;13.63;;;21.50;68.00;;;;;;4971823;28;88733;-73
2021/09/25 07:22:20;;;;;;;56.22;13.20;;;21.50;67.80;;;;;;4960119;28;87886;-74
2021/09/25 07:24:47;;;;;;;47.63;14.15;;;21.50;67.80;;;;;;4973339;28;86972;-72
2021/09/25 07:27:12;;;;;;;40.38;12.20;;;21.50;67.80;;;;;;4970666;28;88763;-72
2021/09/25 07:29:38;;;;;;;42.75;11.55;;;21.50;67.80;;;;;;4972469;28;88351;-72
2021/09/25 07:32:04;;;;;;;43.42;11.35;;;21.50;67.80;;;;;;4974102;28;87253;-72
2021/09/25 07:34:29;;;;;;;39.03;10.68;;;21.50;67.80;;;;;;4970156;28;88098;-73
2021/09/25 07:36:55;;;;;;;37.42;11.13;;;21.50;67.70;;;;;;4971200;28;87631;-73
2021/09/25 07:39:21;;;;;;;41.72;11.23;;;21.50;67.60;;;;;;4975560;28;87368;-73
2021/09/25 07:41:46;;;;;;;34.97;10.90;;;21.50;67.50;;;;;;4972991;28;88016;-72
2021/09/25 07:44:12;;;;;;;39.65;10.98;;;21.50;67.50;;;;;;4962119;28;86892;-73
2021/09/25 07:46:38;;;;;;;36.03;11.13;;;21.50;67.40;;;;;;4955727;28;87734;-72
2021/09/25 07:49:05;;;;;;;36.35;10.82;;;21.50;67.40;;;;;;4937968;28;90241;-75
2021/09/25 07:51:31;;;;;;;42.40;11.13;;;21.60;67.50;;;;;;4956345;28;88335;-73
2021/09/25 07:53:57;;;;;;;31.90;9.85;;;21.50;67.30;;;;;;4951905;28;87318;-72
2021/09/25 07:56:23;;;;;;;37.15;10.80;;;21.60;67.40;;;;;;4955797;28;88006;-72
2021/09/25 07:58:50;;;;;;;31.48;10.20;;;21.50;67.30;;;;;;4951853;28;88315;-72
2021/09/25 08:01:15;;;;;;;34.15;11.18;;;21.60;67.30;;;;;;4953384;28;87128;-72
2021/09/25 08:03:43;;;;;;;27.73;9.65;;;21.50;67.70;;;;;;4952162;28;87293;-72
2021/09/25 08:06:10;;;;;;;27.55;9.68;;;21.50;67.10;;;;;;4955101;28;88126;-76
2021/09/25 08:08:36;;;;;;;26.98;9.07;;;21.50;67.10;;;;;;4956128;28;87263;-72
2021/09/25 08:11:01;;;;;;;34.50;9.10;;;21.50;67.30;;;;;;4958287;28;87635;-72
2021/09/25 08:13:27;;;;;;;26.23;9.20;;;21.50;67.00;;;;;;4957349;28;87325;-72
2021/09/25 08:15:52;;;;;;;29.85;9.27;;;21.60;67.00;;;;;;4957070;28;88993;-72
2021/09/25 08:18:18;;;;;;;27.85;9.13;;;21.60;67.00;;;;;;4955745;28;88089;-73
2021/09/25 08:20:44;;;;;;;26.05;8.68;;;21.60;66.90;;;;;;4955899;28;87763;-71
2021/09/25 08:23:10;;;;;;;29.45;9.88;;;21.60;67.40;;;;;;4959590;28;87922;-72
2021/09/25 08:25:35;;;;;;;25.02;8.23;;;21.60;66.80;;;;;;4960775;28;88688;-72
2021/09/25 08:28:01;;;;;;;23.75;7.97;;;21.60;66.80;;;;;;4956826;28;88022;-72
2021/09/25 08:30:27;;;;;;;23.35;8.52;;;21.60;66.80;;;;;;4958128;28;87319;-71
2021/09/25 08:32:53;;;;;;;33.25;9.20;;;21.60;66.70;;;;;;4963096;28;86830;-76
2021/09/25 08:35:21;;;;;;;22.17;8.27;;;21.60;66.70;;;;;;4958370;28;87710;-73
2021/09/25 08:37:46;;;;;;;21.38;7.65;;;21.60;66.70;;;;;;4954126;28;90744;-73
2021/09/25 08:40:13;;;;;;;20.60;7.90;;;21.60;66.60;;;;;;4942674;28;88437;-72
2021/09/25 08:42:40;;;;;;;26.30;7.90;;;21.60;66.60;;;;;;4960642;28;87811;-72
2021/09/25 08:45:07;;;;;;;18.67;7.55;;;21.60;66.50;;;;;;4961789;28;88260;-76
2021/09/25 08:47:34;;;;;;;19.50;7.55;;;21.60;66.50;;;;;;4957372;28;88669;-71
2021/09/25 08:50:00;;;;;;;20.45;7.05;;;21.60;66.50;;;;;;4954945;28;87904;-71
2021/09/25 08:52:29;;;;;;;25.13;7.50;;;21.60;66.40;;;;;;4954211;28;87679;-71
2021/09/25 08:54:55;;;;;;;16.92;6.63;;;21.60;66.40;;;;;;4953446;28;88688;-71
2021/09/25 08:57:21;;;;;;;21.00;7.65;;;21.60;66.40;;;;;;4953503;28;86916;-71
2021/09/25 08:59:47;;;;;;;18.70;6.25;;;21.60;66.30;;;;;;4953588;28;87075;-72
2021/09/25 09:02:17;;;;;;;15.05;5.75;;;21.70;66.30;;;;;;4953823;28;87254;-72
2021/09/25 09:04:49;;;;;;;18.10;6.95;;;21.70;66.30;;;;;;4952381;28;89600;-71
2021/09/25 09:07:26;;;;;;;15.88;6.50;;;21.70;66.20;;;;;;4954028;28;88458;-71
2021/09/25 09:09:52;;;;;;;19.63;7.00;;;21.70;66.20;;;;;;4953323;28;87280;-74
2021/09/25 09:12:26;;;;;;;17.95;6.63;;;21.70;66.10;;;;;;4952712;28;87771;-72
2021/09/25 09:14:52;;;;;;;;;;;21.70;66.10;;;;;;4951856;28;88083;-72
2021/09/25 09:17:30;;;;;;;18.50;6.68;;;21.70;66.00;;;;;;4954060;28;87838;-74
2021/09/25 09:19:56;;;;;;;16.23;6.55;;;21.70;66.00;;;;;;4954008;28;88056;-72
2021/09/25 09:22:23;;;;;;;18.85;6.18;;;21.70;65.90;;;;;;4953854;28;86671;-72
2021/09/25 09:24:52;;;;;;;17.15;6.05;;;21.80;65.90;;;;;;4952881;28;88858;-72
2021/09/25 09:27:27;;;;;;;13.90;6.40;;;21.80;65.80;;;;;;4954868;28;88316;-73
2021/09/25 09:30:13;;;;;;;18.25;5.95;;;21.80;66.30;;;;;;4955286;28;88837;-71
2021/09/25 09:32:45;;;;;;;16.52;5.53;;;21.80;65.70;;;;;;4952557;28;87144;-71
2021/09/25 09:35:14;;;;;;;14.45;5.10;;;21.80;65.60;;;;;;4951842;28;88006;-71
2021/09/25 09:37:39;;;;;;;12.95;5.22;;;21.80;65.60;;;;;;4951947;28;88191;-72
2021/09/25 09:40:08;;;;;;;13.50;6.13;;;21.80;65.60;;;;;;4951618;28;88985;-72
2021/09/25 09:42:54;;;;;;;15.30;5.93;;;21.80;65.70;;;;;;4934559;28;87300;-71
2021/09/25 09:45:28;;;;;;;14.98;5.95;;;21.80;65.70;;;;;;4951394;28;88035;-71
2021/09/25 09:47:57;;;;;;;15.05;5.22;;;21.90;65.60;;;;;;4950476;28;88673;-71
2021/09/25 09:50:23;;;;;;;12.70;5.75;;;21.90;65.50;;;;;;4992818;23;88447;-77
2021/09/25 09:52:49;;;;;;;10.40;4.97;;;21.90;65.40;;;;;;4943994;28;87201;-79
2021/09/25 09:55:22;;;;;;;13.90;5.68;;;21.90;65.40;;;;;;4950794;28;89508;-80
2021/09/25 09:58:02;;;;;;;11.10;4.88;;;21.90;65.30;;;;;;4952738;28;89354;-78
2021/09/25 10:00:28;;;;;;;14.50;6.18;;;21.90;65.20;;;;;;4924009;28;87959;-78
2021/09/25 10:02:54;;;;;;;9.02;4.93;;;22.00;65.20;;;;;;4938406;28;87301;-80
2021/09/25 10:05:20;;;;;;;10.38;4.75;;;22.00;65.30;;;;;;4945158;28;87794;-78
2021/09/25 10:07:46;;;;;;;10.98;5.13;;;22.00;65.40;;;;;;4940192;28;87498;-77
2021/09/25 10:10:12;;;;;;;14.32;5.05;;;22.00;65.60;;;;;;4941738;28;87573;-77
2021/09/25 10:12:40;;;;;;;13.27;5.18;;;22.00;65.40;;;;;;4945026;28;86901;-77
2021/09/25 10:15:06;;;;;;;11.77;5.20;;;22.10;65.30;;;;;;4925810;28;88788;-78
2021/09/25 10:17:32;;;;;;;13.82;5.03;;;22.10;65.20;;;;;;4943105;28;87689;-77
2021/09/25 10:20:00;;;;;;;11.25;5.32;;;22.00;65.00;;;;;;4941492;28;89463;-79
2021/09/25 10:22:29;;;;;;;11.27;5.07;;;22.10;65.00;;;;;;4942141;28;87982;-77
2021/09/25 10:24:57;;;;;;;13.57;4.90;;;22.10;65.00;;;;;;4939135;28;88357;-77
2021/09/25 10:27:27;;;;;;;13.98;5.28;;;22.10;64.90;;;;;;4944831;28;87708;-77
2021/09/25 10:29:53;;;;;;;12.38;4.93;;;22.20;64.80;;;;;;4925191;28;87614;-76
2021/09/25 10:32:31;;;;;;;12.65;4.65;;;22.20;64.70;;;;;;4943686;28;87846;-79
2021/09/25 10:35:32;;;;;;;8.48;4.38;;;22.20;64.70;;;;;;4931905;28;90559;-80
2021/09/25 10:38:02;;;;;;;9.57;5.05;;;22.20;64.60;;;;;;4929536;28;90778;-81
2021/09/25 10:40:30;;;;;;;12.73;5.20;;;22.20;64.50;;;;;;4944990;28;88322;-79
2021/09/25 10:43:13;;;;;;;9.27;4.82;;;22.20;64.40;;;;;;4946588;28;87043;-81
2021/09/25 10:45:39;;;;;;;7.47;3.88;;;22.20;64.30;;;;;;4943603;28;89298;-79
2021/09/25 10:48:24;;;;;;;9.95;4.30;;;22.30;64.40;;;;;;4943840;28;89346;-78
2021/09/25 10:50:58;;;;;;;13.00;4.72;;;22.30;64.20;;;;;;4927371;28;87957;-81
2021/09/25 10:53:29;;;;;;;9.65;4.55;;;22.30;64.10;;;;;;4940897;28;87532;-79
2021/09/25 10:55:57;;;;;;;8.40;4.18;;;22.30;64.00;;;;;;4940913;28;89163;-81
2021/09/25 10:58:23;;;;;;;10.52;3.95;;;22.40;64.00;;;;;;4944620;28;88899;-81
2021/09/25 11:01:10;;;;;;;11.70;5.10;;;22.40;63.90;;;;;;4943833;28;87282;-80
2021/09/25 11:03:46;;;;;;;10.60;3.92;;;22.40;63.80;;;;;;4942208;28;87591;-84
2021/09/25 11:06:27;;;;;;;7.82;4.10;;;22.40;63.70;;;;;;4926402;28;90398;-82
2021/09/25 11:08:57;;;;;;;7.30;4.05;;;22.40;63.60;;;;;;4946026;28;88083;-79
2021/09/25 11:11:47;;;;;;;10.18;4.32;;;22.50;63.70;;;;;;4939161;28;88059;-78
2021/09/25 11:14:22;;;;;;;9.95;5.13;;;22.50;63.70;;;;;;4940611;28;87376;-80
2021/09/25 11:16:57;;;;;;;10.55;4.25;;;22.50;63.70;;;;;;4942428;28;87546;-79
2021/09/25 11:19:25;;;;;;;27.10;7.65;;;22.40;63.60;;;;;;4943961;28;87978;-87
2021/09/25 11:22:06;;;;;;;28.85;7.57;;;22.40;63.90;;;;;;4924479;28;87378;-81
2021/09/25 11:24:35;;;;;;;29.38;7.15;;;22.40;64.00;;;;;;4944706;28;87854;-79
2021/09/25 11:27:05;;;;;;;21.95;6.72;;;22.30;64.10;;;;;;4944884;28;88159;-82
2021/09/25 11:29:31;;;;;;;29.27;7.20;;;22.30;64.10;;;;;;4921533;28;88184;-75
2021/09/25 11:32:07;;;;;;;20.35;5.72;;;22.30;64.20;;;;;;4924323;28;87653;-79
2021/09/25 11:34:35;;;;;;;22.23;5.88;;;22.30;64.20;;;;;;4940911;28;87930;-75
2021/09/25 11:37:04;;;;;;;20.60;5.80;;;22.30;64.20;;;;;;4943999;28;88753;-81
2021/09/25 11:39:41;;;;;;;15.20;6.00;;;22.30;64.20;;;;;;4943016;28;88190;-82
2021/09/25 11:42:23;;;;;;;19.27;5.53;;;22.30;64.20;;;;;;4942963;28;87224;-82
2021/09/25 11:44:51;;;;;;;21.75;5.93;;;22.30;64.20;;;;;;4943463;28;87300;-82
2021/09/25 11:47:21;;;;;;;15.48;4.88;;;22.30;64.20;;;;;;4942155;28;88226;-77
2021/09/25 11:49:47;;;;;;;14.32;5.25;;;22.30;64.20;;;;;;4940828;28;87913;-78
2021/09/25 11:52:13;;;;;;;14.27;5.28;;;22.30;64.20;;;;;;4943917;28;87343;-80
2021/09/25 11:54:38;;;;;;;14.98;5.72;;;22.30;64.10;;;;;;4938738;28;86905;-78
2021/09/25 11:57:29;;;;;;;9.88;4.72;;;22.30;64.10;;;;;;4937170;28;88101;-81
2021/09/25 11:59:55;;;;;;;15.07;5.05;;;22.30;64.10;;;;;;4941132;28;87896;-81
2021/09/25 12:02:36;;;;;;;13.98;5.28;;;22.40;64.10;;;;;;4938915;28;88673;-80
2021/09/25 12:05:02;;;;;;;14.57;4.85;;;22.40;64.10;;;;;;4939775;28;87840;-75
2021/09/25 12:07:45;;;;;;;13.35;5.30;;;22.40;64.00;;;;;;4943516;28;87371;-79
2021/09/25 12:10:23;;;;;;;9.73;4.03;;;22.40;64.00;;;;;;4943814;28;87690;-81
2021/09/25 12:12:55;;;;;;;15.50;4.53;;;22.40;63.90;;;;;;4938027;28;87818;-74
2021/09/25 12:15:33;;;;;;;12.65;4.68;;;22.40;63.80;;;;;;4940501;28;87348;-80
2021/09/25 12:18:14;;;;;;;9.13;4.50;;;22.40;63.80;;;;;;4940267;28;88300;-81
2021/09/25 12:21:05;;;;;;;9.38;4.10;;;22.40;63.60;;;;;;4939649;28;87342;-76
2021/09/25 12:23:41;;;;;;;10.35;4.32;;;22.40;63.60;;;;;;4940505;28;87172;-77
2021/09/25 12:26:09;;;;;;;11.25;4.45;;;22.50;63.70;;;;;;4941361;28;88276;-74
2021/09/25 12:28:55;;;;;;;7.13;3.88;;;22.50;63.70;;;;;;4929853;28;91564;-80
2021/09/25 12:31:39;;;;;;;12.15;4.70;;;22.50;63.60;;;;;;4930676;28;90645;-81
2021/09/25 12:34:07;;;;;;;8.63;4.03;;;22.50;63.60;;;;;;4922655;28;87604;-76
2021/09/25 12:36:47;;;;;;;9.07;3.85;;;22.50;63.50;;;;;;4942847;28;87623;-80
2021/09/25 12:39:20;;;;;;;7.05;3.92;;;22.50;63.50;;;;;;4923241;28;90787;-82
2021/09/25 12:41:57;;;;;;;12.18;4.80;;;22.50;63.50;;;;;;4937625;28;88036;-78
2021/09/25 12:44:24;;;;;;;9.65;4.22;;;22.50;63.40;;;;;;4932189;28;87289;-83
2021/09/25 12:46:58;;;;;;;11.45;4.18;;;22.50;63.40;;;;;;4945167;28;86813;-83
2021/09/25 12:49:24;;;;;;;11.07;4.18;;;22.60;63.50;;;;;;4939244;28;88470;-82
2021/09/25 12:51:55;;;;;;;8.48;4.20;;;22.50;63.40;;;;;;4939617;28;88687;-76
2021/09/25 12:54:23;;;;;;;9.57;4.10;;;22.50;63.40;;;;;;4929951;28;88948;-81
2021/09/25 12:57:09;;;;;;;13.10;4.28;;;22.50;63.40;;;;;;4940464;28;88215;-83
2021/09/25 12:59:38;;;;;;;7.80;4.15;;;22.60;63.80;;;;;;4936496;28;88355;-82
2021/09/25 13:02:15;;;;;;;7.13;3.63;;;22.60;63.50;;;;;;4940469;28;87809;-81
2021/09/25 13:07:10;;;;;;;9.55;4.15;;;22.60;63.40;;;;;;4940716;28;87246;-76
2021/09/25 13:09:49;;;;;;;5.53;3.55;;;22.60;63.40;;;;;;4920564;28;90625;-81
2021/09/25 13:12:24;;;;;;;8.25;4.20;;;22.60;63.40;;;;;;4939364;28;87695;-78
2021/09/25 13:15:01;;;;;;;7.53;3.90;;;22.60;63.30;;;;;;4938830;28;87337;-75
2021/09/25 13:17:28;;;;;;;6.05;3.65;;;22.60;63.30;;;;;;4937107;28;87484;-74
2021/09/25 13:19:53;;;;;;;6.82;3.92;;;22.70;63.30;;;;;;4934604;28;88702;-81
2021/09/25 13:22:19;;;;;;;8.68;3.95;;;22.70;63.20;;;;;;4943048;28;89753;-81
2021/09/25 13:24:45;;;;;;;7.00;3.50;;;22.70;63.20;;;;;;4926773;28;88207;-75
2021/09/25 13:27:11;;;;;;;7.35;3.83;;;22.70;63.10;;;;;;4937121;28;87849;-81
2021/09/25 13:29:37;;;;;;;8.43;3.72;;;22.70;63.20;;;;;;4928383;28;89714;-81
2021/09/25 13:32:03;;;;;;;7.05;4.13;;;22.70;63.20;;;;;;4946172;28;87960;-81
2021/09/25 13:34:30;;;;;;;10.57;3.85;;;22.70;63.20;;;;;;4943679;28;87404;-78
2021/09/25 13:36:58;;;;;;;6.10;3.22;;;22.70;63.20;;;;;;4945003;28;87331;-81
2021/09/25 13:39:24;;;;;;;5.38;3.42;;;22.70;63.20;;;;;;4940503;28;88249;-82
2021/09/25 13:41:50;;;;;;;5.88;3.58;;;22.70;63.20;;;;;;4938916;28;87948;-81
2021/09/25 13:44:16;;;;;;;7.93;3.85;;;22.70;63.10;;;;;;4940112;28;88581;-80